Time;durP1;ratioP1;P1;durP2;ratioP2;P2;SDS_P1;SDS_P2;PMS_P1;PMS_P2;Temp;Humidity;BMP_temperature;BMP_pressure;BME280_temperature;BME280_humidity;BME280_pressure;Samples;Min_cycle;Max_cycle;Signal;HPM_P1;HPM_P2
2023/06/18 00:02:00;;;;;;;27.63;21.90;;;18.10;99.90;;;;;;5033199;28;20863;-72
2023/06/18 00:04:27;;;;;;;32.77;22.60;;;18.10;99.90;;;;;;5026710;28;20945;-69
2023/06/18 00:06:54;;;;;;;26.57;22.30;;;18.10;99.90;;;;;;5037475;28;20487;-72
2023/06/18 00:09:23;;;;;;;27.17;23.37;;;18.10;99.90;;;;;;5036770;28;20449;-72
2023/06/18 00:11:50;;;;;;;26.27;22.33;;;18.10;99.90;;;;;;5034811;28;20506;-73
2023/06/18 00:14:18;;;;;;;44.40;36.67;;;18.00;99.90;;;;;;5027645;28;20472;-70
2023/06/18 00:16:45;;;;;;;30.20;23.20;;;18.00;99.90;;;;;;5039568;28;20442;-71
2023/06/18 00:19:12;;;;;;;27.80;21.77;;;18.00;99.90;;;;;;5034945;28;20524;-71
2023/06/18 00:21:39;;;;;;;25.97;23.23;;;18.00;99.90;;;;;;5043386;28;20449;-71
2023/06/18 00:24:06;;;;;;;24.97;21.40;;;18.00;99.90;;;;;;5035974;28;20540;-71
2023/06/18 00:26:34;;;;;;;29.43;23.67;;;18.00;99.90;;;;;;5041407;28;20914;-72
2023/06/18 00:29:02;;;;;;;26.10;23.37;;;18.00;99.90;;;;;;5041008;28;20519;-72
2023/06/18 00:31:32;;;;;;;26.80;23.90;;;17.90;99.90;;;;;;5045020;28;20449;-71
2023/06/18 00:34:06;;;;;;;29.23;24.77;;;17.90;99.90;;;;;;5039533;28;21543;-72
2023/06/18 00:36:34;;;;;;;29.87;24.13;;;17.90;99.90;;;;;;5042208;28;20441;-72
2023/06/18 00:39:04;;;;;;;26.70;22.83;;;17.80;99.90;;;;;;5042073;28;20963;-72
2023/06/18 00:41:31;;;;;;;27.43;23.50;;;17.80;99.90;;;;;;5038500;28;21033;-71
2023/06/18 00:44:00;;;;;;;25.07;22.37;;;17.80;99.90;;;;;;5043650;28;20480;-70
2023/06/18 00:46:30;;;;;;;24.43;22.00;;;17.80;99.90;;;;;;5034522;28;20486;-71
2023/06/18 00:48:59;;;;;;;25.90;21.50;;;17.80;99.90;;;;;;5039691;28;20461;-72
2023/06/18 00:51:28;;;;;;;27.93;22.70;;;17.80;99.90;;;;;;5028963;28;20540;-72
2023/06/18 00:53:56;;;;;;;30.47;24.50;;;17.70;99.90;;;;;;5036579;28;20470;-72
2023/06/18 00:56:25;;;;;;;25.60;20.07;;;17.70;99.90;;;;;;5030065;28;20459;-72
2023/06/18 00:58:52;;;;;;;28.13;23.63;;;17.70;99.90;;;;;;5044261;28;20487;-72
2023/06/18 01:01:20;;;;;;;31.80;26.23;;;17.60;99.90;;;;;;5034916;28;20531;-72
2023/06/18 01:03:48;;;;;;;29.10;26.00;;;17.60;99.90;;;;;;5035054;28;20561;-72
2023/06/18 01:06:17;;;;;;;33.83;23.80;;;17.60;99.90;;;;;;5033279;28;20600;-72
2023/06/18 01:08:48;;;;;;;28.57;23.63;;;17.60;99.90;;;;;;5042548;28;20810;-72
2023/06/18 01:11:19;;;;;;;30.70;24.47;;;17.60;99.90;;;;;;5039890;28;20503;-72
2023/06/18 01:13:46;;;;;;;24.73;22.10;;;17.50;99.90;;;;;;5041895;28;20939;-72
2023/06/18 01:16:14;;;;;;;30.70;27.33;;;17.50;99.90;;;;;;5033841;28;20793;-72
2023/06/18 01:18:46;;;;;;;28.60;23.40;;;17.50;99.90;;;;;;5042383;28;20459;-72
2023/06/18 01:21:18;;;;;;;30.13;26.77;;;17.60;99.90;;;;;;5035015;28;20446;-71
2023/06/18 01:23:59;;;;;;;27.50;24.60;;;17.40;99.90;;;;;;5037909;28;20963;-72
2023/06/18 01:26:27;;;;;;;29.27;25.23;;;17.40;99.90;;;;;;5017796;28;20876;-70
2023/06/18 01:28:58;;;;;;;30.35;25.38;;;17.30;99.90;;;;;;5041728;28;20539;-71
2023/06/18 01:31:26;;;;;;;32.13;26.45;;;17.40;99.90;;;;;;5041217;28;20192;-71
2023/06/18 01:33:54;;;;;;;31.33;25.27;;;17.40;99.90;;;;;;5038292;28;20568;-70
2023/06/18 01:36:30;;;;;;;35.20;29.05;;;17.30;99.90;;;;;;5037686;28;20508;-71
2023/06/18 01:39:03;;;;;;;30.80;27.67;;;17.30;99.90;;;;;;5038669;28;20198;-71
2023/06/18 01:41:34;;;;;;;30.75;27.48;;;17.20;99.90;;;;;;5038263;28;20649;-71
2023/06/18 01:44:05;;;;;;;38.58;30.77;;;17.20;99.90;;;;;;5041274;28;20314;-73
2023/06/18 01:46:33;;;;;;;27.33;23.75;;;17.20;99.90;;;;;;5052695;28;20274;-70
2023/06/18 01:49:05;;;;;;;35.20;28.27;;;17.20;99.90;;;;;;5035566;28;20289;-72
2023/06/18 01:51:35;;;;;;;31.52;28.13;;;17.10;99.90;;;;;;5039471;28;20252;-72
2023/06/18 01:54:03;;;;;;;35.45;30.20;;;17.10;99.90;;;;;;5033178;28;20238;-71
2023/06/18 01:56:30;;;;;;;35.20;28.98;;;17.10;99.90;;;;;;5041764;28;20194;-70
2023/06/18 01:58:59;;;;;;;40.70;30.90;;;17.00;99.90;;;;;;5037269;28;20629;-71
2023/06/18 02:01:30;;;;;;;37.53;28.00;;;17.00;99.90;;;;;;5037055;28;20238;-71
2023/06/18 02:03:57;;;;;;;33.13;29.30;;;17.00;99.90;;;;;;5034010;28;20535;-72
2023/06/18 02:06:25;;;;;;;33.20;29.37;;;17.00;99.90;;;;;;5036174;28;20224;-71
2023/06/18 02:08:52;;;;;;;34.05;28.60;;;16.90;99.90;;;;;;5041457;28;20925;-71
2023/06/18 02:11:19;;;;;;;34.65;29.27;;;16.90;99.90;;;;;;5034797;28;20280;-72
2023/06/18 02:13:48;;;;;;;33.47;28.60;;;16.90;99.90;;;;;;5035138;28;20700;-72
2023/06/18 02:16:15;;;;;;;29.05;26.00;;;16.90;99.90;;;;;;5034974;28;20238;-72
2023/06/18 02:18:42;;;;;;;35.33;28.40;;;16.90;99.90;;;;;;5037511;28;20289;-71
2023/06/18 02:21:09;;;;;;;33.75;29.50;;;16.90;99.90;;;;;;5032734;28;20453;-72
2023/06/18 02:23:37;;;;;;;31.90;27.35;;;16.90;99.90;;;;;;5037772;28;20574;-72
2023/06/18 02:26:05;;;;;;;33.90;29.02;;;16.80;99.90;;;;;;5041679;28;20199;-72
2023/06/18 02:28:32;;;;;;;33.65;28.30;;;16.90;99.90;;;;;;5036578;28;20209;-71
2023/06/18 02:30:59;;;;;;;30.85;27.60;;;16.80;99.90;;;;;;5038750;28;20297;-71
2023/06/18 02:33:26;;;;;;;32.33;28.85;;;16.80;99.90;;;;;;5035467;28;20250;-71
2023/06/18 02:35:53;;;;;;;31.65;27.60;;;16.90;99.90;;;;;;5030388;28;20252;-71
2023/06/18 02:38:20;;;;;;;37.38;30.70;;;16.90;99.90;;;;;;5036824;28;20669;-70
2023/06/18 02:40:48;;;;;;;39.97;31.00;;;16.90;99.90;;;;;;5036648;28;20207;-71
2023/06/18 02:43:15;;;;;;;34.63;30.00;;;16.90;99.90;;;;;;5039832;28;20310;-73
2023/06/18 02:45:42;;;;;;;34.78;28.20;;;16.80;99.90;;;;;;5029378;28;20566;-72
2023/06/18 02:48:09;;;;;;;33.45;29.73;;;16.80;99.90;;;;;;5033731;28;20226;-70
2023/06/18 02:50:36;;;;;;;29.92;25.67;;;16.80;99.90;;;;;;5037625;28;20197;-71
2023/06/18 02:53:03;;;;;;;36.22;28.23;;;16.70;99.90;;;;;;5039201;28;20224;-71
2023/06/18 02:55:31;;;;;;;34.63;28.85;;;16.70;99.90;;;;;;5042381;28;20220;-71
2023/06/18 02:57:59;;;;;;;30.15;26.27;;;16.70;99.90;;;;;;5032083;28;20259;-71
2023/06/18 03:00:26;;;;;;;32.25;28.77;;;16.80;99.90;;;;;;5034100;28;20206;-71
2023/06/18 03:02:53;;;;;;;32.38;28.52;;;16.70;99.90;;;;;;5033920;28;20220;-72
2023/06/18 03:05:20;;;;;;;36.50;30.80;;;16.70;99.90;;;;;;5035855;28;20293;-72
2023/06/18 03:07:47;;;;;;;35.63;29.23;;;16.70;99.90;;;;;;5045074;28;20292;-73
2023/06/18 03:10:15;;;;;;;35.45;30.27;;;16.70;99.90;;;;;;5042250;28;20633;-72
2023/06/18 03:12:42;;;;;;;33.17;29.38;;;16.70;99.90;;;;;;5041612;28;20226;-72
2023/06/18 03:15:11;;;;;;;34.38;29.13;;;16.80;99.90;;;;;;5023764;28;20671;-72
2023/06/18 03:17:37;;;;;;;35.92;28.80;;;16.80;99.90;;;;;;5035202;28;20202;-71
2023/06/18 03:20:07;;;;;;;34.45;30.45;;;16.80;99.90;;;;;;5036416;28;20208;-72
2023/06/18 03:22:33;;;;;;;34.80;31.02;;;16.80;99.90;;;;;;5043512;28;20233;-72
2023/06/18 03:25:01;;;;;;;36.72;30.40;;;16.80;99.90;;;;;;5036399;28;20296;-71
2023/06/18 03:27:28;;;;;;;32.22;28.40;;;16.90;99.90;;;;;;5035314;28;20742;-72
2023/06/18 03:29:55;;;;;;;30.05;26.63;;;16.90;99.90;;;;;;5025021;28;20199;-72
2023/06/18 03:32:24;;;;;;;30.30;26.85;;;17.00;99.90;;;;;;5038904;28;20252;-72
2023/06/18 03:34:51;;;;;;;32.95;29.20;;;17.00;99.90;;;;;;5034468;28;20213;-71
2023/06/18 03:37:18;;;;;;;33.13;29.67;;;16.90;99.90;;;;;;5037143;28;20211;-72
2023/06/18 03:39:45;;;;;;;34.97;28.67;;;17.00;99.90;;;;;;5034609;28;20203;-72
2023/06/18 03:42:12;;;;;;;32.75;27.48;;;17.00;99.90;;;;;;5036465;28;20204;-71
2023/06/18 03:44:40;;;;;;;30.43;27.30;;;17.00;99.90;;;;;;5037367;28;20623;-72
2023/06/18 03:47:08;;;;;;;28.83;25.83;;;17.00;99.90;;;;;;5034489;28;20941;-71
2023/06/18 03:49:36;;;;;;;33.47;29.88;;;17.10;99.90;;;;;;5031711;28;20199;-71
2023/06/18 03:52:03;;;;;;;32.65;29.02;;;17.20;99.90;;;;;;5038096;28;20426;-72
2023/06/18 03:54:31;;;;;;;30.05;26.98;;;17.20;99.90;;;;;;5047668;28;20548;-72
2023/06/18 03:56:58;;;;;;;28.73;25.65;;;17.30;99.90;;;;;;5040173;28;20292;-72
2023/06/18 03:59:25;;;;;;;29.13;26.03;;;17.40;99.90;;;;;;5030781;28;20690;-72
2023/06/18 04:01:53;;;;;;;23.57;21.33;;;17.50;99.90;;;;;;5042295;28;20934;-72
2023/06/18 04:04:20;;;;;;;26.23;23.47;;;17.60;99.90;;;;;;5038447;28;20467;-72
2023/06/18 04:06:49;;;;;;;25.47;22.77;;;18.00;99.90;;;;;;5034847;28;20530;-72
2023/06/18 04:09:16;;;;;;;23.70;21.23;;;18.50;99.90;;;;;;5049127;28;20843;-72
2023/06/18 04:11:45;;;;;;;22.63;20.30;;;19.10;99.90;;;;;;5043137;28;20505;-72
2023/06/18 04:14:12;;;;;;;21.90;19.67;;;19.70;99.90;;;;;;5043050;28;20474;-73
2023/06/18 04:16:39;;;;;;;22.20;20.00;;;20.30;99.90;;;;;;5042159;28;20455;-72
2023/06/18 04:19:05;;;;;;;20.60;18.70;;;20.90;99.90;;;;;;5040396;28;20436;-71
2023/06/18 04:21:34;;;;;;;19.03;17.23;;;21.60;99.90;;;;;;5032657;28;20450;-71
2023/06/18 04:24:03;;;;;;;17.60;15.80;;;22.20;99.90;;;;;;5040019;28;20472;-71
2023/06/18 04:26:30;;;;;;;21.37;19.23;;;22.60;99.90;;;;;;5037769;28;20907;-72
2023/06/18 04:28:56;;;;;;;20.80;18.93;;;23.00;99.90;;;;;;5042028;28;20469;-71
2023/06/18 04:31:24;;;;;;;16.57;14.80;;;23.50;99.90;;;;;;5036077;28;20543;-71
2023/06/18 04:33:51;;;;;;;19.47;17.70;;;24.20;99.90;;;;;;5043223;28;20537;-71
2023/06/18 04:36:17;;;;;;;18.60;16.83;;;24.70;99.90;;;;;;5036465;28;20450;-70
2023/06/18 04:38:44;;;;;;;16.37;14.90;;;25.10;99.90;;;;;;5038596;28;20513;-70
2023/06/18 04:41:14;;;;;;;18.97;16.97;;;25.10;99.90;;;;;;5035418;28;20478;-71
2023/06/18 04:43:40;;;;;;;16.80;15.30;;;25.30;99.90;;;;;;5036491;28;20476;-71
2023/06/18 04:46:10;;;;;;;16.67;15.20;;;25.30;99.90;;;;;;5045047;28;20818;-71
2023/06/18 04:48:37;;;;;;;19.03;16.57;;;25.80;99.90;;;;;;5040774;28;20475;-71
2023/06/18 04:51:04;;;;;;;17.80;16.10;;;26.30;98.10;;;;;;5034067;28;20446;-72
2023/06/18 04:53:31;;;;;;;16.77;15.27;;;26.60;96.40;;;;;;5045092;28;20459;-71
2023/06/18 04:55:59;;;;;;;18.40;16.73;;;27.10;95.00;;;;;;5042550;28;20637;-71
2023/06/18 04:58:34;;;;;;;16.67;15.20;;;27.40;93.90;;;;;;5040635;28;20449;-71
2023/06/18 05:01:01;;;;;;;20.43;15.77;;;27.80;92.80;;;;;;5034274;28;20449;-71
2023/06/18 05:03:28;;;;;;;15.40;14.03;;;28.10;91.90;;;;;;5032922;28;20459;-71
2023/06/18 05:05:55;;;;;;;15.67;14.17;;;28.30;91.20;;;;;;5039389;28;20530;-71
2023/06/18 05:08:22;;;;;;;15.33;13.83;;;28.80;90.80;;;;;;5041494;28;20985;-71
2023/06/18 05:10:49;;;;;;;15.27;13.90;;;29.40;88.50;;;;;;5039206;28;20531;-71
2023/06/18 05:13:16;;;;;;;17.10;15.40;;;29.50;87.40;;;;;;5042700;28;20466;-71
2023/06/18 05:15:44;;;;;;;14.53;13.30;;;29.60;86.10;;;;;;5035046;28;20810;-71
2023/06/18 05:18:11;;;;;;;14.53;13.33;;;30.00;85.30;;;;;;5038718;28;20497;-72
2023/06/18 05:20:38;;;;;;;15.00;13.60;;;30.10;83.80;;;;;;5039713;28;20455;-71
2023/06/18 05:23:05;;;;;;;16.90;15.13;;;30.40;83.30;;;;;;5037529;28;20549;-71
2023/06/18 05:25:33;;;;;;;14.80;13.50;;;30.70;82.00;;;;;;5041314;28;20528;-71
2023/06/18 05:28:00;;;;;;;14.50;13.20;;;30.90;81.50;;;;;;5038416;28;20478;-71
2023/06/18 05:30:27;;;;;;;14.50;13.20;;;31.20;80.50;;;;;;5035959;28;20451;-71
2023/06/18 05:32:55;;;;;;;15.00;13.53;;;31.30;80.00;;;;;;5038957;28;20477;-71
2023/06/18 05:35:22;;;;;;;15.17;13.87;;;31.50;78.70;;;;;;5034935;28;20523;-71
2023/06/18 05:37:50;;;;;;;13.70;12.40;;;31.70;77.90;;;;;;5040206;28;20438;-71
2023/06/18 05:40:17;;;;;;;13.80;12.60;;;31.90;77.30;;;;;;5038674;28;20813;-72
2023/06/18 05:42:44;;;;;;;12.83;11.53;;;32.20;76.40;;;;;;5039174;28;20474;-70
2023/06/18 05:45:11;;;;;;;11.53;10.63;;;32.70;74.60;;;;;;5036849;28;20503;-70
2023/06/18 05:47:38;;;;;;;14.63;13.23;;;32.80;73.40;;;;;;5037612;28;20518;-70
2023/06/18 05:50:08;;;;;;;14.50;13.03;;;32.80;73.50;;;;;;5042487;28;20804;-71
2023/06/18 05:52:34;;;;;;;13.73;12.53;;;32.90;72.40;;;;;;5033965;28;20475;-71
2023/06/18 05:55:01;;;;;;;13.23;11.87;;;32.80;72.30;;;;;;5040173;28;20453;-71
2023/06/18 05:57:28;;;;;;;14.00;12.67;;;33.20;72.90;;;;;;5036087;28;20457;-71
2023/06/18 05:59:55;;;;;;;12.43;11.23;;;33.10;72.70;;;;;;5040780;28;20860;-72
2023/06/18 06:02:22;;;;;;;12.20;11.07;;;33.10;72.70;;;;;;5035044;28;20463;-70
2023/06/18 06:04:49;;;;;;;11.90;10.80;;;33.00;71.30;;;;;;5042441;28;20438;-71
2023/06/18 06:07:17;;;;;;;12.70;11.60;;;32.80;71.40;;;;;;5038529;28;20526;-71
2023/06/18 06:09:44;;;;;;;14.00;12.80;;;31.70;72.30;;;;;;5038516;28;20472;-71
2023/06/18 06:12:12;;;;;;;11.13;10.00;;;31.80;73.80;;;;;;5037744;28;20950;-71
2023/06/18 06:14:39;;;;;;;11.40;10.30;;;32.00;72.50;;;;;;5033406;28;20451;-71
2023/06/18 06:17:06;;;;;;;12.10;11.10;;;32.40;72.50;;;;;;5040574;28;20534;-71
2023/06/18 06:19:34;;;;;;;11.33;10.33;;;32.60;71.00;;;;;;5032812;28;20449;-70
2023/06/18 06:22:00;;;;;;;12.80;10.40;;;32.60;70.40;;;;;;5041620;28;20521;-71
2023/06/18 06:24:29;;;;;;;11.87;10.67;;;32.60;71.30;;;;;;5034791;28;20530;-71
2023/06/18 06:26:56;;;;;;;10.50;9.57;;;32.90;70.30;;;;;;5031711;28;20614;-71
2023/06/18 06:29:23;;;;;;;10.40;9.40;;;33.40;68.80;;;;;;5036892;28;20554;-71
2023/06/18 06:31:50;;;;;;;10.17;9.17;;;33.80;67.30;;;;;;5035649;28;20442;-71
2023/06/18 06:34:19;;;;;;;11.90;10.00;;;34.20;65.40;;;;;;5041579;28;20537;-71
2023/06/18 06:36:46;;;;;;;9.17;8.47;;;34.40;66.30;;;;;;5036346;28;20450;-71
2023/06/18 06:39:13;;;;;;;9.10;8.33;;;35.10;63.20;;;;;;5038832;28;20524;-72
2023/06/18 06:41:41;;;;;;;9.80;8.33;;;34.80;62.00;;;;;;5038950;28;20450;-71
2023/06/18 06:44:08;;;;;;;8.93;8.00;;;34.70;62.50;;;;;;5034711;28;20474;-71
2023/06/18 06:46:35;;;;;;;9.20;8.30;;;34.80;62.50;;;;;;5034156;28;20442;-70
2023/06/18 06:49:03;;;;;;;8.53;7.63;;;34.50;62.40;;;;;;5036006;28;20846;-72
2023/06/18 06:51:30;;;;;;;8.47;7.67;;;34.80;62.10;;;;;;5041690;28;20860;-71
2023/06/18 06:53:58;;;;;;;8.33;7.53;;;34.70;61.80;;;;;;5038800;28;20474;-71
2023/06/18 06:56:25;;;;;;;11.63;8.93;;;35.40;61.20;;;;;;5031971;28;20440;-72
2023/06/18 06:58:54;;;;;;;8.90;8.20;;;35.30;62.00;;;;;;5040276;28;20818;-71
2023/06/18 07:01:20;;;;;;;8.40;7.70;;;35.80;60.20;;;;;;5033834;28;20501;-71
2023/06/18 07:03:48;;;;;;;12.43;8.20;;;35.90;59.40;;;;;;5036898;28;20463;-71
2023/06/18 07:06:15;;;;;;;8.73;7.80;;;36.40;58.80;;;;;;5038651;28;20874;-71
2023/06/18 07:08:42;;;;;;;8.50;7.47;;;36.00;58.90;;;;;;5034209;28;20474;-72
2023/06/18 07:11:09;;;;;;;8.93;8.03;;;36.40;58.50;;;;;;5034579;28;20454;-71
2023/06/18 07:13:36;;;;;;;8.97;8.27;;;36.60;57.80;;;;;;5038624;28;20466;-70
2023/06/18 07:16:05;;;;;;;9.37;8.57;;;36.10;57.20;;;;;;5037870;28;20565;-71
2023/06/18 07:18:32;;;;;;;8.97;8.23;;;36.30;57.50;;;;;;5040008;28;20796;-71
2023/06/18 07:20:59;;;;;;;7.70;7.10;;;36.20;56.60;;;;;;5039876;28;20545;-70
2023/06/18 07:23:26;;;;;;;8.17;7.57;;;36.20;56.90;;;;;;5032430;28;20471;-70
2023/06/18 07:25:53;;;;;;;15.13;8.43;;;36.60;56.50;;;;;;5031549;28;20442;-71
2023/06/18 07:28:19;;;;;;;8.97;7.70;;;36.80;56.30;;;;;;5039530;28;20559;-70
2023/06/18 07:30:46;;;;;;;8.90;8.20;;;37.30;56.00;;;;;;5040070;28;20542;-70
2023/06/18 07:33:14;;;;;;;7.20;6.50;;;37.20;55.90;;;;;;5038522;28;20564;-70
2023/06/18 07:35:41;;;;;;;8.57;7.80;;;36.90;56.10;;;;;;5042701;28;20446;-70
2023/06/18 07:38:08;;;;;;;7.67;7.07;;;36.70;55.40;;;;;;5039190;28;20442;-69
2023/06/18 07:40:37;;;;;;;8.40;7.70;;;36.30;56.60;;;;;;5033897;28;20449;-70
2023/06/18 07:43:03;;;;;;;8.60;7.80;;;36.20;55.00;;;;;;5034457;28;20537;-71
2023/06/18 07:45:30;;;;;;;8.40;7.80;;;36.30;55.70;;;;;;5040690;28;20469;-71
2023/06/18 07:47:57;;;;;;;7.70;6.97;;;36.40;55.60;;;;;;5033174;28;20479;-70
2023/06/18 07:50:26;;;;;;;7.97;7.37;;;36.40;56.10;;;;;;5038898;28;20969;-70
2023/06/18 07:52:53;;;;;;;8.53;7.93;;;36.30;55.10;;;;;;5022985;28;21021;-70
2023/06/18 07:55:20;;;;;;;7.13;6.63;;;36.80;55.00;;;;;;5032631;28;20555;-71
2023/06/18 07:57:46;;;;;;;9.30;8.37;;;36.30;55.40;;;;;;5037114;28;20451;-71
2023/06/18 08:00:14;;;;;;;8.40;7.70;;;36.80;55.00;;;;;;5032255;28;20454;-71
2023/06/18 08:02:42;;;;;;;12.17;7.30;;;37.10;54.40;;;;;;5030929;28;20471;-70
2023/06/18 08:05:10;;;;;;;8.37;7.60;;;37.80;53.70;;;;;;5042495;28;20450;-70
2023/06/18 08:07:38;;;;;;;8.00;7.30;;;38.00;53.30;;;;;;5036482;28;20447;-72
2023/06/18 08:10:06;;;;;;;8.43;7.83;;;38.20;53.50;;;;;;5037146;28;20479;-71
2023/06/18 08:12:33;;;;;;;9.47;8.67;;;38.10;52.90;;;;;;5038858;28;20903;-71
2023/06/18 08:15:00;;;;;;;9.33;8.43;;;37.30;52.70;;;;;;5037466;28;20525;-71
2023/06/18 08:17:27;;;;;;;8.60;7.97;;;37.00;54.10;;;;;;5032519;28;20530;-70
2023/06/18 08:19:54;;;;;;;8.37;7.77;;;36.90;54.30;;;;;;5036477;28;20513;-71
2023/06/18 08:22:21;;;;;;;9.50;8.70;;;37.00;54.00;;;;;;5036391;28;20470;-70
2023/06/18 08:24:49;;;;;;;7.80;7.20;;;35.80;54.50;;;;;;5031635;28;20947;-71
2023/06/18 08:27:18;;;;;;;8.57;7.90;;;36.60;54.60;;;;;;5037667;28;20511;-72
2023/06/18 08:29:45;;;;;;;7.80;7.03;;;37.30;53.20;;;;;;5035513;28;21073;-71
2023/06/18 08:32:13;;;;;;;8.13;7.53;;;37.90;52.10;;;;;;5033573;28;20470;-72
2023/06/18 08:34:42;;;;;;;9.40;8.60;;;38.60;51.50;;;;;;5043570;28;20469;-69
2023/06/18 08:37:10;;;;;;;11.07;10.07;;;38.10;51.00;;;;;;5036688;28;20495;-71
2023/06/18 08:39:37;;;;;;;8.80;8.00;;;37.90;52.10;;;;;;5039429;28;20466;-71
2023/06/18 08:42:08;;;;;;;8.13;7.43;;;37.80;51.50;;;;;;5040648;28;20449;-72
2023/06/18 08:44:35;;;;;;;8.77;8.00;;;37.90;51.10;;;;;;5043551;28;20451;-70
2023/06/18 08:47:04;;;;;;;8.63;7.83;;;38.10;50.30;;;;;;5039299;28;20440;-71
2023/06/18 08:49:32;;;;;;;9.00;8.30;;;37.90;50.20;;;;;;5039747;28;20482;-71
2023/06/18 08:52:03;;;;;;;9.07;8.07;;;37.30;50.20;;;;;;5035864;28;20448;-71
2023/06/18 08:54:33;;;;;;;9.43;8.50;;;37.30;51.30;;;;;;5041397;28;20535;-70
2023/06/18 08:57:08;;;;;;;11.03;8.50;;;37.40;50.60;;;;;;5045190;28;20460;-71
2023/06/18 08:59:37;;;;;;;7.50;6.90;;;38.10;49.80;;;;;;5037509;28;20522;-70
2023/06/18 09:02:05;;;;;;;7.00;6.50;;;38.30;49.30;;;;;;5035216;28;20456;-70
2023/06/18 09:04:34;;;;;;;8.00;7.30;;;38.20;48.10;;;;;;5043975;28;20449;-70
2023/06/18 09:07:04;;;;;;;7.37;6.77;;;37.50;48.30;;;;;;5044320;28;20670;-71
2023/06/18 09:09:31;;;;;;;7.37;6.87;;;37.40;48.30;;;;;;5038578;28;20552;-70
2023/06/18 09:11:58;;;;;;;7.40;5.97;;;37.70;47.90;;;;;;5046646;28;20952;-70
2023/06/18 09:14:27;;;;;;;8.13;7.43;;;37.80;47.40;;;;;;5037009;28;20458;-71
2023/06/18 09:16:54;;;;;;;6.70;5.93;;;37.10;47.90;;;;;;5040185;28;20453;-71
2023/06/18 09:19:23;;;;;;;7.30;6.67;;;37.10;49.10;;;;;;5038856;28;20453;-70
2023/06/18 09:21:52;;;;;;;9.23;8.40;;;37.40;49.10;;;;;;5029659;28;20483;-70
2023/06/18 09:24:20;;;;;;;9.20;8.50;;;37.40;49.20;;;;;;5041201;28;20476;-72
2023/06/18 09:26:48;;;;;;;8.50;7.90;;;37.40;48.60;;;;;;5031119;28;20471;-71
2023/06/18 09:29:15;;;;;;;7.20;6.50;;;37.00;48.70;;;;;;5031099;28;20467;-72
2023/06/18 09:31:45;;;;;;;8.50;7.40;;;37.30;48.90;;;;;;5038551;28;20439;-70
2023/06/18 09:34:17;;;;;;;8.33;7.63;;;36.70;48.90;;;;;;5040828;28;20519;-71
2023/06/18 09:36:47;;;;;;;7.63;7.03;;;36.10;49.50;;;;;;5034207;28;21012;-70
2023/06/18 09:39:18;;;;;;;8.77;7.97;;;35.50;50.20;;;;;;5037874;28;20474;-71
2023/06/18 09:41:47;;;;;;;7.33;6.80;;;35.50;51.00;;;;;;5035538;28;20449;-71
2023/06/18 09:44:15;;;;;;;8.73;7.93;;;35.20;51.30;;;;;;5030034;28;20488;-70
2023/06/18 09:46:47;;;;;;;7.30;6.70;;;35.00;51.30;;;;;;5035648;28;20718;-71
2023/06/18 09:49:16;;;;;;;8.33;7.53;;;34.40;51.40;;;;;;5034600;28;20499;-71
2023/06/18 09:51:43;;;;;;;7.40;6.70;;;34.20;51.60;;;;;;5037353;28;20538;-71
2023/06/18 09:54:10;;;;;;;8.67;7.93;;;34.70;52.00;;;;;;5024815;28;20520;-70
2023/06/18 09:56:39;;;;;;;7.30;6.80;;;34.60;51.00;;;;;;5033219;28;21292;-71
2023/06/18 09:59:06;;;;;;;6.53;5.93;;;34.30;50.60;;;;;;5041211;28;20451;-71
2023/06/18 10:01:46;;;;;;;6.30;5.77;;;34.50;49.80;;;;;;5027795;28;20452;-71
2023/06/18 10:04:13;;;;;;;7.27;6.67;;;34.60;51.00;;;;;;5028560;28;20467;-71
2023/06/18 10:06:42;;;;;;;7.07;6.47;;;35.20;49.70;;;;;;5044413;28;20462;-71
2023/06/18 10:09:10;;;;;;;5.90;5.37;;;35.20;48.70;;;;;;5040203;28;20478;-71
2023/06/18 10:11:38;;;;;;;6.70;6.20;;;35.00;47.70;;;;;;5039130;28;20521;-71
2023/06/18 10:14:10;;;;;;;5.87;5.40;;;35.00;48.50;;;;;;5039921;28;20465;-71
2023/06/18 10:16:41;;;;;;;6.70;6.10;;;35.00;47.90;;;;;;5037585;28;20504;-70
2023/06/18 10:19:13;;;;;;;6.60;6.00;;;35.00;47.00;;;;;;5035720;28;20430;-71
2023/06/18 10:21:47;;;;;;;7.70;7.10;;;34.90;48.20;;;;;;5030439;28;20479;-72
2023/06/18 10:24:19;;;;;;;6.93;6.23;;;34.60;50.10;;;;;;5036057;28;20462;-70
2023/06/18 10:26:47;;;;;;;7.03;6.13;;;34.20;49.60;;;;;;5042871;28;20444;-70
2023/06/18 10:29:14;;;;;;;6.20;5.70;;;34.30;50.40;;;;;;5026421;28;20475;-70
2023/06/18 10:31:43;;;;;;;7.60;6.97;;;34.00;50.50;;;;;;5036143;28;20493;-72
2023/06/18 10:34:13;;;;;;;7.03;6.40;;;33.80;51.30;;;;;;5038151;28;20466;-70
2023/06/18 10:36:40;;;;;;;7.87;7.27;;;33.90;51.20;;;;;;5034438;28;20443;-71
2023/06/18 10:39:07;;;;;;;7.10;6.40;;;33.40;51.70;;;;;;5040771;28;20445;-71
2023/06/18 10:41:35;;;;;;;7.90;7.20;;;33.40;52.10;;;;;;5035920;28;20452;-70
2023/06/18 10:44:02;;;;;;;7.23;6.63;;;33.20;52.40;;;;;;5037126;28;20464;-71
2023/06/18 10:46:33;;;;;;;7.37;6.77;;;33.00;52.90;;;;;;5040650;28;20442;-70
2023/06/18 10:49:16;;;;;;;7.00;6.40;;;32.80;53.00;;;;;;5035968;28;20481;-72
2023/06/18 10:51:51;;;;;;;6.50;6.00;;;32.50;52.30;;;;;;5035001;28;20545;-72
2023/06/18 10:54:29;;;;;;;6.70;6.20;;;32.30;51.70;;;;;;5036204;28;20831;-71
2023/06/18 10:56:57;;;;;;;7.23;6.50;;;32.00;52.10;;;;;;5038584;28;20976;-71
2023/06/18 10:59:34;;;;;;;6.83;6.23;;;31.80;52.50;;;;;;5037115;28;20514;-71
2023/06/18 11:02:01;;;;;;;7.40;6.77;;;31.60;53.30;;;;;;5020823;28;20513;-71
2023/06/18 11:04:33;;;;;;;7.43;6.80;;;31.40;53.30;;;;;;5044379;28;20442;-71
2023/06/18 11:07:16;;;;;;;5.83;5.43;;;31.50;53.40;;;;;;5033778;28;20848;-71
2023/06/18 11:09:48;;;;;;;6.17;5.67;;;31.40;50.60;;;;;;5032887;28;20521;-71
2023/06/18 11:12:21;;;;;;;6.40;5.90;;;31.20;50.20;;;;;;5040934;28;20446;-70
2023/06/18 11:15:15;;;;;;;7.43;6.73;;;31.00;51.60;;;;;;5031279;28;20527;-70
2023/06/18 11:17:42;;;;;;;6.50;5.97;;;30.90;52.80;;;;;;5030872;28;20442;-71
2023/06/18 11:20:12;;;;;;;6.60;6.10;;;30.90;53.70;;;;;;5036979;28;20485;-70
2023/06/18 11:22:40;;;;;;;5.73;5.23;;;30.90;53.50;;;;;;5032167;28;20477;-70
2023/06/18 11:25:10;;;;;;;7.77;6.90;;;30.50;53.80;;;;;;5037020;28;20442;-71
2023/06/18 11:27:41;;;;;;;7.47;6.77;;;30.60;54.20;;;;;;5031158;28;21040;-70
2023/06/18 11:30:10;;;;;;;6.93;6.27;;;30.60;54.00;;;;;;5028869;28;20470;-71
2023/06/18 11:32:37;;;;;;;6.93;6.27;;;30.40;54.00;;;;;;5038898;28;20467;-71
2023/06/18 11:35:07;;;;;;;6.80;6.10;;;30.40;54.60;;;;;;5039563;28;20471;-71
2023/06/18 11:37:35;;;;;;;6.60;6.00;;;30.20;55.20;;;;;;5035309;28;20839;-71
2023/06/18 11:40:05;;;;;;;5.93;5.33;;;30.20;55.30;;;;;;5037333;28;20800;-71
2023/06/18 11:42:33;;;;;;;7.17;6.47;;;30.40;54.30;;;;;;5036008;28;21047;-70
2023/06/18 11:45:02;;;;;;;6.20;5.60;;;30.40;53.90;;;;;;5037740;28;20939;-70
2023/06/18 11:47:30;;;;;;;5.77;5.33;;;30.40;53.40;;;;;;5022528;28;20818;-71
2023/06/18 11:49:58;;;;;;;6.20;5.70;;;30.40;54.00;;;;;;5044282;28;20526;-71
2023/06/18 11:52:26;;;;;;;10.13;6.03;;;30.60;53.20;;;;;;5038064;28;20474;-71
2023/06/18 11:55:02;;;;;;;6.40;5.90;;;30.70;53.50;;;;;;5041502;28;20533;-71
2023/06/18 11:57:29;;;;;;;6.93;6.43;;;30.70;53.10;;;;;;5032780;28;20459;-71
2023/06/18 11:59:56;;;;;;;6.73;6.23;;;30.70;53.60;;;;;;5031876;28;20452;-71
2023/06/18 12:02:25;;;;;;;6.90;6.40;;;30.60;53.80;;;;;;5034489;28;20460;-72
2023/06/18 12:04:52;;;;;;;6.30;5.80;;;30.40;53.80;;;;;;5033827;28;20461;-71
2023/06/18 12:07:22;;;;;;;7.00;6.40;;;30.40;53.80;;;;;;5029400;28;20474;-71
2023/06/18 12:09:50;;;;;;;6.50;5.90;;;30.60;54.00;;;;;;5030314;28;20515;-72
2023/06/18 12:12:27;;;;;;;6.40;5.77;;;30.60;53.80;;;;;;5036340;28;20497;-71
2023/06/18 12:15:01;;;;;;;6.03;5.43;;;30.80;53.70;;;;;;5039162;28;20871;-70
2023/06/18 12:17:34;;;;;;;7.00;6.40;;;30.90;54.00;;;;;;5032390;28;20505;-71
2023/06/18 12:20:08;;;;;;;7.63;6.73;;;30.50;53.80;;;;;;5037598;28;20467;-71
2023/06/18 12:22:35;;;;;;;6.47;5.90;;;30.30;53.90;;;;;;5041925;28;20467;-70
2023/06/18 12:25:02;;;;;;;6.53;6.00;;;30.20;54.60;;;;;;5035399;28;20453;-70
2023/06/18 12:27:31;;;;;;;5.37;4.97;;;30.30;54.80;;;;;;5044265;28;20805;-71
2023/06/18 12:30:00;;;;;;;6.43;5.93;;;30.40;53.90;;;;;;5035958;28;20479;-71
2023/06/18 12:32:27;;;;;;;6.43;5.90;;;30.20;53.40;;;;;;5041215;28;20551;-72
2023/06/18 12:34:53;;;;;;;7.70;6.13;;;30.10;53.20;;;;;;5035640;28;21150;-72
2023/06/18 12:37:20;;;;;;;6.63;6.03;;;30.10;53.70;;;;;;5044104;28;20461;-70
2023/06/18 12:40:09;;;;;;;5.90;5.40;;;30.00;53.90;;;;;;5044404;28;20503;-70
2023/06/18 12:42:37;;;;;;;8.17;6.30;;;30.00;53.70;;;;;;5035117;28;20560;-71